sensor_id;sensor_type;location;lat;lon;timestamp;P1;durP1;ratioP1;P2;durP2;ratioP2
18336;SDS011;9294;51.106;7.028;2024-01-10T00:00:46;3.58;;;3.28;;
18336;SDS011;9294;51.106;7.028;2024-01-10T00:03:14;4.70;;;4.30;;
18336;SDS011;9294;51.106;7.028;2024-01-10T00:05:41;4.88;;;4.05;;
18336;SDS011;9294;51.106;7.028;2024-01-10T00:08:08;4.63;;;4.22;;
18336;SDS011;9294;51.106;7.028;2024-01-10T00:10:35;4.65;;;3.95;;
18336;SDS011;9294;51.106;7.028;2024-01-10T00:13:03;4.25;;;3.92;;
18336;SDS011;9294;51.106;7.028;2024-01-10T00:15:30;4.03;;;3.72;;
18336;SDS011;9294;51.106;7.028;2024-01-10T00:17:57;4.32;;;3.92;;
18336;SDS011;9294;51.106;7.028;2024-01-10T00:20:26;4.40;;;4.10;;
18336;SDS011;9294;51.106;7.028;2024-01-10T00:22:53;3.92;;;3.63;;
18336;SDS011;9294;51.106;7.028;2024-01-10T00:25:20;3.97;;;3.55;;
18336;SDS011;9294;51.106;7.028;2024-01-10T00:27:47;3.88;;;3.58;;
18336;SDS011;9294;51.106;7.028;2024-01-10T00:30:14;4.35;;;4.05;;
18336;SDS011;9294;51.106;7.028;2024-01-10T00:32:41;4.95;;;3.90;;
18336;SDS011;9294;51.106;7.028;2024-01-10T00:35:08;4.60;;;4.20;;
18336;SDS011;9294;51.106;7.028;2024-01-10T00:37:37;4.47;;;4.07;;
18336;SDS011;9294;51.106;7.028;2024-01-10T00:40:05;4.10;;;3.70;;
18336;SDS011;9294;51.106;7.028;2024-01-10T00:42:32;4.00;;;3.70;;
18336;SDS011;9294;51.106;7.028;2024-01-10T00:45:00;4.60;;;4.30;;
18336;SDS011;9294;51.106;7.028;2024-01-10T00:47:27;4.47;;;4.00;;
18336;SDS011;9294;51.106;7.028;2024-01-10T00:49:54;4.10;;;3.70;;
18336;SDS011;9294;51.106;7.028;2024-01-10T00:52:21;4.03;;;3.72;;
18336;SDS011;9294;51.106;7.028;2024-01-10T00:54:50;4.22;;;3.78;;
18336;SDS011;9294;51.106;7.028;2024-01-10T00:57:17;4.28;;;3.88;;
18336;SDS011;9294;51.106;7.028;2024-01-10T00:59:45;4.53;;;4.13;;
18336;SDS011;9294;51.106;7.028;2024-01-10T01:02:12;5.07;;;4.68;;
18336;SDS011;9294;51.106;7.028;2024-01-10T01:04:39;4.80;;;4.35;;
18336;SDS011;9294;51.106;7.028;2024-01-10T01:07:06;4.25;;;3.90;;
18336;SDS011;9294;51.106;7.028;2024-01-10T01:09:33;4.15;;;3.85;;
18336;SDS011;9294;51.106;7.028;2024-01-10T01:12:01;3.75;;;3.45;;
18336;SDS011;9294;51.106;7.028;2024-01-10T01:14:29;3.97;;;3.67;;
18336;SDS011;9294;51.106;7.028;2024-01-10T01:16:56;4.15;;;3.85;;
18336;SDS011;9294;51.106;7.028;2024-01-10T01:19:23;4.22;;;3.92;;
18336;SDS011;9294;51.106;7.028;2024-01-10T01:21:50;3.80;;;3.50;;
18336;SDS011;9294;51.106;7.028;2024-01-10T01:24:17;4.30;;;4.00;;
18336;SDS011;9294;51.106;7.028;2024-01-10T01:26:44;4.30;;;3.90;;
18336;SDS011;9294;51.106;7.028;2024-01-10T01:29:13;4.30;;;4.00;;
18336;SDS011;9294;51.106;7.028;2024-01-10T01:31:40;4.45;;;4.05;;
18336;SDS011;9294;51.106;7.028;2024-01-10T01:34:07;4.05;;;3.75;;
18336;SDS011;9294;51.106;7.028;2024-01-10T01:36:34;4.07;;;3.78;;
18336;SDS011;9294;51.106;7.028;2024-01-10T01:39:01;4.15;;;3.83;;
18336;SDS011;9294;51.106;7.028;2024-01-10T01:41:28;3.80;;;3.50;;
18336;SDS011;9294;51.106;7.028;2024-01-10T01:43:55;4.28;;;3.97;;
18336;SDS011;9294;51.106;7.028;2024-01-10T01:46:23;4.88;;;4.47;;
18336;SDS011;9294;51.106;7.028;2024-01-10T01:48:51;3.85;;;3.55;;
18336;SDS011;9294;51.106;7.028;2024-01-10T01:51:18;3.95;;;3.70;;
18336;SDS011;9294;51.106;7.028;2024-01-10T01:53:47;3.95;;;3.65;;
18336;SDS011;9294;51.106;7.028;2024-01-10T01:56:15;4.60;;;4.28;;
18336;SDS011;9294;51.106;7.028;2024-01-10T01:58:42;3.90;;;3.60;;
18336;SDS011;9294;51.106;7.028;2024-01-10T02:01:10;4.43;;;4.10;;
18336;SDS011;9294;51.106;7.028;2024-01-10T02:03:39;4.00;;;3.70;;
18336;SDS011;9294;51.106;7.028;2024-01-10T02:06:06;4.28;;;3.88;;
18336;SDS011;9294;51.106;7.028;2024-01-10T02:08:33;3.30;;;3.10;;
18336;SDS011;9294;51.106;7.028;2024-01-10T02:11:01;3.92;;;3.67;;
18336;SDS011;9294;51.106;7.028;2024-01-10T02:13:28;4.30;;;4.00;;
18336;SDS011;9294;51.106;7.028;2024-01-10T02:15:56;3.75;;;3.55;;
18336;SDS011;9294;51.106;7.028;2024-01-10T02:18:24;4.13;;;3.85;;
18336;SDS011;9294;51.106;7.028;2024-01-10T02:20:52;4.50;;;4.20;;
18336;SDS011;9294;51.106;7.028;2024-01-10T02:23:19;4.32;;;3.92;;
18336;SDS011;9294;51.106;7.028;2024-01-10T02:25:47;3.83;;;3.53;;
18336;SDS011;9294;51.106;7.028;2024-01-10T02:28:14;3.65;;;3.45;;
18336;SDS011;9294;51.106;7.028;2024-01-10T02:30:41;3.85;;;3.55;;
18336;SDS011;9294;51.106;7.028;2024-01-10T02:33:09;4.35;;;3.95;;
18336;SDS011;9294;51.106;7.028;2024-01-10T02:35:36;3.90;;;3.60;;
18336;SDS011;9294;51.106;7.028;2024-01-10T02:38:03;4.13;;;3.83;;
18336;SDS011;9294;51.106;7.028;2024-01-10T02:40:30;3.95;;;3.67;;
18336;SDS011;9294;51.106;7.028;2024-01-10T02:42:59;3.63;;;3.42;;
18336;SDS011;9294;51.106;7.028;2024-01-10T02:45:26;4.18;;;3.90;;
18336;SDS011;9294;51.106;7.028;2024-01-10T02:47:53;4.18;;;3.83;;
18336;SDS011;9294;51.106;7.028;2024-01-10T02:50:20;4.43;;;4.13;;
18336;SDS011;9294;51.106;7.028;2024-01-10T02:52:47;4.13;;;3.83;;
18336;SDS011;9294;51.106;7.028;2024-01-10T02:55:14;3.33;;;3.13;;
18336;SDS011;9294;51.106;7.028;2024-01-10T02:57:41;4.25;;;3.95;;
18336;SDS011;9294;51.106;7.028;2024-01-10T03:00:10;4.15;;;3.85;;
18336;SDS011;9294;51.106;7.028;2024-01-10T03:02:37;3.53;;;3.33;;
18336;SDS011;9294;51.106;7.028;2024-01-10T03:05:05;4.20;;;3.80;;
18336;SDS011;9294;51.106;7.028;2024-01-10T03:07:32;4.40;;;4.10;;
18336;SDS011;9294;51.106;7.028;2024-01-10T03:09:59;3.70;;;3.50;;
18336;SDS011;9294;51.106;7.028;2024-01-10T03:12:26;3.80;;;3.55;;
18336;SDS011;9294;51.106;7.028;2024-01-10T03:14:53;4.07;;;3.80;;
18336;SDS011;9294;51.106;7.028;2024-01-10T03:17:21;3.58;;;3.38;;
18336;SDS011;9294;51.106;7.028;2024-01-10T03:19:48;3.60;;;3.40;;
18336;SDS011;9294;51.106;7.028;2024-01-10T03:22:15;3.30;;;3.10;;
18336;SDS011;9294;51.106;7.028;2024-01-10T03:24:42;4.35;;;4.03;;
18336;SDS011;9294;51.106;7.028;2024-01-10T03:27:09;4.05;;;3.75;;
18336;SDS011;9294;51.106;7.028;2024-01-10T03:29:37;4.03;;;3.72;;
18336;SDS011;9294;51.106;7.028;2024-01-10T03:32:04;3.53;;;3.33;;
18336;SDS011;9294;51.106;7.028;2024-01-10T03:34:32;4.40;;;4.10;;
18336;SDS011;9294;51.106;7.028;2024-01-10T03:37:00;3.97;;;3.67;;
18336;SDS011;9294;51.106;7.028;2024-01-10T03:39:27;4.20;;;3.90;;
18336;SDS011;9294;51.106;7.028;2024-01-10T03:41:54;4.47;;;4.10;;
18336;SDS011;9294;51.106;7.028;2024-01-10T03:44:21;3.90;;;3.70;;
18336;SDS011;9294;51.106;7.028;2024-01-10T03:46:48;4.70;;;4.30;;
18336;SDS011;9294;51.106;7.028;2024-01-10T03:49:15;3.90;;;3.67;;
18336;SDS011;9294;51.106;7.028;2024-01-10T03:51:44;3.60;;;3.40;;
18336;SDS011;9294;51.106;7.028;2024-01-10T03:54:11;3.80;;;3.60;;
18336;SDS011;9294;51.106;7.028;2024-01-10T03:56:38;3.88;;;3.67;;
18336;SDS011;9294;51.106;7.028;2024-01-10T03:59:05;3.75;;;3.45;;
18336;SDS011;9294;51.106;7.028;2024-01-10T04:01:32;4.28;;;3.85;;
18336;SDS011;9294;51.106;7.028;2024-01-10T04:03:59;3.72;;;3.53;;
18336;SDS011;9294;51.106;7.028;2024-01-10T04:06:26;3.95;;;3.65;;
18336;SDS011;9294;51.106;7.028;2024-01-10T04:08:55;4.53;;;4.22;;
18336;SDS011;9294;51.106;7.028;2024-01-10T04:11:22;3.63;;;3.42;;
18336;SDS011;9294;51.106;7.028;2024-01-10T04:13:49;4.35;;;4.05;;
18336;SDS011;9294;51.106;7.028;2024-01-10T04:16:16;4.50;;;4.10;;
18336;SDS011;9294;51.106;7.028;2024-01-10T04:18:43;4.45;;;4.07;;
18336;SDS011;9294;51.106;7.028;2024-01-10T04:21:11;4.20;;;3.90;;
18336;SDS011;9294;51.106;7.028;2024-01-10T04:23:38;3.85;;;3.65;;
18336;SDS011;9294;51.106;7.028;2024-01-10T04:26:06;4.63;;;4.32;;
18336;SDS011;9294;51.106;7.028;2024-01-10T04:28:33;3.72;;;3.45;;
18336;SDS011;9294;51.106;7.028;2024-01-10T04:31:04;4.00;;;3.70;;
18336;SDS011;9294;51.106;7.028;2024-01-10T04:33:31;4.95;;;4.60;;
18336;SDS011;9294;51.106;7.028;2024-01-10T04:35:58;3.92;;;3.67;;
18336;SDS011;9294;51.106;7.028;2024-01-10T04:38:25;4.53;;;4.15;;
18336;SDS011;9294;51.106;7.028;2024-01-10T04:40:52;3.88;;;3.67;;
18336;SDS011;9294;51.106;7.028;2024-01-10T04:43:21;4.75;;;4.45;;
18336;SDS011;9294;51.106;7.028;2024-01-10T04:45:48;4.60;;;4.22;;
18336;SDS011;9294;51.106;7.028;2024-01-10T04:48:15;3.78;;;3.58;;
18336;SDS011;9294;51.106;7.028;2024-01-10T04:50:42;4.18;;;3.88;;
18336;SDS011;9294;51.106;7.028;2024-01-10T04:53:09;4.07;;;3.78;;
18336;SDS011;9294;51.106;7.028;2024-01-10T04:55:36;4.10;;;3.90;;
18336;SDS011;9294;51.106;7.028;2024-01-10T04:58:03;4.30;;;3.90;;
18336;SDS011;9294;51.106;7.028;2024-01-10T05:00:32;4.40;;;4.10;;
18336;SDS011;9294;51.106;7.028;2024-01-10T05:02:59;4.22;;;3.85;;
18336;SDS011;9294;51.106;7.028;2024-01-10T05:05:26;3.83;;;3.58;;
18336;SDS011;9294;51.106;7.028;2024-01-10T05:07:54;3.38;;;3.17;;
18336;SDS011;9294;51.106;7.028;2024-01-10T05:10:21;4.32;;;4.03;;
18336;SDS011;9294;51.106;7.028;2024-01-10T05:12:48;4.07;;;3.78;;
18336;SDS011;9294;51.106;7.028;2024-01-10T05:15:15;4.28;;;3.95;;
18336;SDS011;9294;51.106;7.028;2024-01-10T05:17:43;4.03;;;3.83;;
18336;SDS011;9294;51.106;7.028;2024-01-10T05:20:10;4.75;;;4.35;;
18336;SDS011;9294;51.106;7.028;2024-01-10T05:22:39;4.18;;;3.88;;
18336;SDS011;9294;51.106;7.028;2024-01-10T05:25:07;4.35;;;3.97;;
18336;SDS011;9294;51.106;7.028;2024-01-10T05:27:34;3.83;;;3.63;;
18336;SDS011;9294;51.106;7.028;2024-01-10T05:30:01;4.30;;;4.00;;
18336;SDS011;9294;51.106;7.028;2024-01-10T05:32:28;4.05;;;3.70;;
18336;SDS011;9294;51.106;7.028;2024-01-10T05:34:57;3.85;;;3.65;;
18336;SDS011;9294;51.106;7.028;2024-01-10T05:37:24;4.05;;;3.75;;
18336;SDS011;9294;51.106;7.028;2024-01-10T05:39:51;4.18;;;3.88;;
18336;SDS011;9294;51.106;7.028;2024-01-10T05:42:18;4.10;;;3.80;;
18336;SDS011;9294;51.106;7.028;2024-01-10T05:44:45;3.67;;;3.47;;
18336;SDS011;9294;51.106;7.028;2024-01-10T05:47:13;3.90;;;3.60;;
18336;SDS011;9294;51.106;7.028;2024-01-10T05:49:40;3.92;;;3.72;;
18336;SDS011;9294;51.106;7.028;2024-01-10T05:52:08;3.85;;;3.55;;
18336;SDS011;9294;51.106;7.028;2024-01-10T05:54:36;3.88;;;3.58;;
18336;SDS011;9294;51.106;7.028;2024-01-10T05:57:05;3.85;;;3.55;;
18336;SDS011;9294;51.106;7.028;2024-01-10T05:59:32;3.95;;;3.65;;
18336;SDS011;9294;51.106;7.028;2024-01-10T06:02:00;4.38;;;4.00;;
18336;SDS011;9294;51.106;7.028;2024-01-10T06:04:27;4.13;;;3.83;;
18336;SDS011;9294;51.106;7.028;2024-01-10T06:06:56;3.72;;;3.42;;
18336;SDS011;9294;51.106;7.028;2024-01-10T06:09:25;3.97;;;3.70;;
18336;SDS011;9294;51.106;7.028;2024-01-10T06:11:52;3.72;;;3.53;;
18336;SDS011;9294;51.106;7.028;2024-01-10T06:14:19;3.58;;;3.38;;
18336;SDS011;9294;51.106;7.028;2024-01-10T06:16:46;3.42;;;3.22;;
18336;SDS011;9294;51.106;7.028;2024-01-10T06:19:13;3.88;;;3.67;;
18336;SDS011;9294;51.106;7.028;2024-01-10T06:21:40;4.15;;;3.78;;
18336;SDS011;9294;51.106;7.028;2024-01-10T06:24:08;3.65;;;3.45;;
18336;SDS011;9294;51.106;7.028;2024-01-10T06:26:36;3.75;;;3.55;;
18336;SDS011;9294;51.106;7.028;2024-01-10T06:29:03;3.92;;;3.63;;
18336;SDS011;9294;51.106;7.028;2024-01-10T06:31:30;3.75;;;3.17;;
18336;SDS011;9294;51.106;7.028;2024-01-10T06:33:58;3.80;;;3.40;;
18336;SDS011;9294;51.106;7.028;2024-01-10T06:36:26;3.47;;;3.20;;
18336;SDS011;9294;51.106;7.028;2024-01-10T06:38:53;4.50;;;4.13;;
18336;SDS011;9294;51.106;7.028;2024-01-10T06:41:20;3.55;;;3.30;;
18336;SDS011;9294;51.106;7.028;2024-01-10T06:43:50;4.05;;;3.45;;
18336;SDS011;9294;51.106;7.028;2024-01-10T06:46:18;3.50;;;3.30;;
18336;SDS011;9294;51.106;7.028;2024-01-10T06:48:45;5.05;;;3.78;;
18336;SDS011;9294;51.106;7.028;2024-01-10T06:51:12;3.50;;;3.30;;
18336;SDS011;9294;51.106;7.028;2024-01-10T06:53:39;3.78;;;3.47;;
18336;SDS011;9294;51.106;7.028;2024-01-10T06:56:06;3.90;;;3.60;;
18336;SDS011;9294;51.106;7.028;2024-01-10T06:58:34;4.40;;;3.50;;
18336;SDS011;9294;51.106;7.028;2024-01-10T07:01:03;3.10;;;2.90;;
18336;SDS011;9294;51.106;7.028;2024-01-10T07:03:30;3.50;;;3.30;;
18336;SDS011;9294;51.106;7.028;2024-01-10T07:05:59;3.40;;;3.20;;
18336;SDS011;9294;51.106;7.028;2024-01-10T07:08:26;3.75;;;3.42;;
18336;SDS011;9294;51.106;7.028;2024-01-10T07:10:55;3.28;;;3.08;;
18336;SDS011;9294;51.106;7.028;2024-01-10T07:13:22;3.85;;;3.55;;
18336;SDS011;9294;51.106;7.028;2024-01-10T07:15:49;3.90;;;3.60;;
18336;SDS011;9294;51.106;7.028;2024-01-10T07:18:18;4.25;;;3.80;;
18336;SDS011;9294;51.106;7.028;2024-01-10T07:20:46;5.47;;;3.63;;
18336;SDS011;9294;51.106;7.028;2024-01-10T07:23:13;4.10;;;3.30;;
18336;SDS011;9294;51.106;7.028;2024-01-10T07:25:40;5.65;;;4.25;;
18336;SDS011;9294;51.106;7.028;2024-01-10T07:28:07;4.75;;;4.00;;
18336;SDS011;9294;51.106;7.028;2024-01-10T07:30:34;15.57;;;8.75;;
18336;SDS011;9294;51.106;7.028;2024-01-10T07:33:01;24.13;;;13.82;;
18336;SDS011;9294;51.106;7.028;2024-01-10T07:35:29;22.60;;;13.13;;
18336;SDS011;9294;51.106;7.028;2024-01-10T07:37:57;24.80;;;13.82;;
18336;SDS011;9294;51.106;7.028;2024-01-10T07:40:24;24.05;;;14.93;;
18336;SDS011;9294;51.106;7.028;2024-01-10T07:42:51;24.00;;;14.45;;
18336;SDS011;9294;51.106;7.028;2024-01-10T07:45:18;22.52;;;13.20;;
18336;SDS011;9294;51.106;7.028;2024-01-10T07:47:45;26.58;;;12.85;;
18336;SDS011;9294;51.106;7.028;2024-01-10T07:50:12;22.38;;;13.27;;
18336;SDS011;9294;51.106;7.028;2024-01-10T07:52:41;17.80;;;12.18;;
18336;SDS011;9294;51.106;7.028;2024-01-10T07:55:09;18.60;;;11.52;;
18336;SDS011;9294;51.106;7.028;2024-01-10T07:57:36;18.73;;;11.48;;
18336;SDS011;9294;51.106;7.028;2024-01-10T08:00:04;17.33;;;10.73;;
18336;SDS011;9294;51.106;7.028;2024-01-10T08:02:34;14.45;;;9.50;;
18336;SDS011;9294;51.106;7.028;2024-01-10T08:05:01;14.60;;;8.63;;
18336;SDS011;9294;51.106;7.028;2024-01-10T08:07:30;16.75;;;9.80;;
18336;SDS011;9294;51.106;7.028;2024-01-10T08:09:59;14.20;;;9.25;;
18336;SDS011;9294;51.106;7.028;2024-01-10T08:12:26;13.80;;;8.63;;
18336;SDS011;9294;51.106;7.028;2024-01-10T08:14:53;16.65;;;8.60;;
18336;SDS011;9294;51.106;7.028;2024-01-10T08:17:20;12.88;;;8.23;;
18336;SDS011;9294;51.106;7.028;2024-01-10T08:19:48;12.40;;;8.63;;
18336;SDS011;9294;51.106;7.028;2024-01-10T08:22:17;16.30;;;9.32;;
18336;SDS011;9294;51.106;7.028;2024-01-10T08:24:44;17.25;;;9.57;;
18336;SDS011;9294;51.106;7.028;2024-01-10T08:27:14;12.50;;;9.02;;
18336;SDS011;9294;51.106;7.028;2024-01-10T08:29:42;14.35;;;9.10;;
18336;SDS011;9294;51.106;7.028;2024-01-10T08:32:09;14.48;;;9.23;;
18336;SDS011;9294;51.106;7.028;2024-01-10T08:34:36;15.43;;;8.90;;
18336;SDS011;9294;51.106;7.028;2024-01-10T08:37:03;17.88;;;10.10;;
18336;SDS011;9294;51.106;7.028;2024-01-10T08:39:31;14.70;;;9.73;;
18336;SDS011;9294;51.106;7.028;2024-01-10T08:41:58;12.80;;;8.90;;
18336;SDS011;9294;51.106;7.028;2024-01-10T08:44:26;13.25;;;9.93;;
18336;SDS011;9294;51.106;7.028;2024-01-10T08:46:54;16.90;;;9.38;;
18336;SDS011;9294;51.106;7.028;2024-01-10T08:49:21;12.57;;;9.60;;
18336;SDS011;9294;51.106;7.028;2024-01-10T08:51:48;15.60;;;8.32;;
18336;SDS011;9294;51.106;7.028;2024-01-10T08:54:15;12.13;;;8.77;;
18336;SDS011;9294;51.106;7.028;2024-01-10T08:56:44;10.40;;;7.35;;
18336;SDS011;9294;51.106;7.028;2024-01-10T08:59:12;13.45;;;8.93;;
18336;SDS011;9294;51.106;7.028;2024-01-10T09:01:40;9.15;;;7.22;;
18336;SDS011;9294;51.106;7.028;2024-01-10T09:04:08;10.73;;;6.75;;
18336;SDS011;9294;51.106;7.028;2024-01-10T09:06:35;10.98;;;7.35;;
18336;SDS011;9294;51.106;7.028;2024-01-10T09:09:02;10.25;;;7.47;;
18336;SDS011;9294;51.106;7.028;2024-01-10T09:11:29;11.32;;;7.47;;
18336;SDS011;9294;51.106;7.028;2024-01-10T09:13:56;8.60;;;6.97;;
18336;SDS011;9294;51.106;7.028;2024-01-10T09:16:24;14.32;;;7.50;;
18336;SDS011;9294;51.106;7.028;2024-01-10T09:18:53;10.88;;;7.55;;
18336;SDS011;9294;51.106;7.028;2024-01-10T09:21:22;10.65;;;7.20;;
18336;SDS011;9294;51.106;7.028;2024-01-10T09:23:49;10.68;;;7.63;;
18336;SDS011;9294;51.106;7.028;2024-01-10T09:26:16;12.07;;;8.25;;
18336;SDS011;9294;51.106;7.028;2024-01-10T09:28:43;11.80;;;7.72;;
18336;SDS011;9294;51.106;7.028;2024-01-10T09:31:10;11.88;;;7.88;;
18336;SDS011;9294;51.106;7.028;2024-01-10T09:33:37;10.07;;;7.53;;
18336;SDS011;9294;51.106;7.028;2024-01-10T09:36:06;9.90;;;6.93;;
18336;SDS011;9294;51.106;7.028;2024-01-10T09:38:34;12.43;;;7.40;;
18336;SDS011;9294;51.106;7.028;2024-01-10T09:41:02;10.25;;;7.50;;
18336;SDS011;9294;51.106;7.028;2024-01-10T09:43:30;9.85;;;6.95;;
18336;SDS011;9294;51.106;7.028;2024-01-10T09:45:58;9.10;;;7.18;;
18336;SDS011;9294;51.106;7.028;2024-01-10T09:48:25;9.35;;;7.03;;
18336;SDS011;9294;51.106;7.028;2024-01-10T09:50:52;8.93;;;6.07;;
18336;SDS011;9294;51.106;7.028;2024-01-10T09:53:22;7.07;;;6.38;;
18336;SDS011;9294;51.106;7.028;2024-01-10T09:55:49;9.27;;;7.13;;
18336;SDS011;9294;51.106;7.028;2024-01-10T09:58:16;11.95;;;7.47;;
18336;SDS011;9294;51.106;7.028;2024-01-10T10:00:44;8.13;;;6.10;;
18336;SDS011;9294;51.106;7.028;2024-01-10T10:03:11;9.05;;;6.57;;
18336;SDS011;9294;51.106;7.028;2024-01-10T10:05:38;8.82;;;7.28;;
18336;SDS011;9294;51.106;7.028;2024-01-10T10:08:07;10.30;;;6.78;;
18336;SDS011;9294;51.106;7.028;2024-01-10T10:10:37;7.72;;;6.78;;
18336;SDS011;9294;51.106;7.028;2024-01-10T10:13:08;10.68;;;7.13;;
18336;SDS011;9294;51.106;7.028;2024-01-10T10:15:36;7.18;;;6.28;;
18336;SDS011;9294;51.106;7.028;2024-01-10T10:18:03;7.68;;;6.22;;
18336;SDS011;9294;51.106;7.028;2024-01-10T10:20:31;7.85;;;6.40;;
18336;SDS011;9294;51.106;7.028;2024-01-10T10:23:00;10.85;;;6.78;;
18336;SDS011;9294;51.106;7.028;2024-01-10T10:25:28;10.07;;;6.47;;
18336;SDS011;9294;51.106;7.028;2024-01-10T10:27:58;7.13;;;6.43;;
18336;SDS011;9294;51.106;7.028;2024-01-10T10:30:26;9.52;;;6.32;;
18336;SDS011;9294;51.106;7.028;2024-01-10T10:32:53;7.10;;;6.40;;
18336;SDS011;9294;51.106;7.028;2024-01-10T10:35:20;12.77;;;6.47;;
18336;SDS011;9294;51.106;7.028;2024-01-10T10:37:48;6.90;;;6.20;;
18336;SDS011;9294;51.106;7.028;2024-01-10T10:40:15;6.97;;;6.32;;
18336;SDS011;9294;51.106;7.028;2024-01-10T10:42:44;9.38;;;6.35;;
18336;SDS011;9294;51.106;7.028;2024-01-10T10:45:14;9.18;;;6.90;;
18336;SDS011;9294;51.106;7.028;2024-01-10T10:47:41;7.90;;;6.32;;
18336;SDS011;9294;51.106;7.028;2024-01-10T10:50:11;11.90;;;7.40;;
18336;SDS011;9294;51.106;7.028;2024-01-10T10:52:39;7.82;;;7.00;;
18336;SDS011;9294;51.106;7.028;2024-01-10T10:55:09;7.45;;;6.07;;
18336;SDS011;9294;51.106;7.028;2024-01-10T10:57:37;7.80;;;6.63;;
18336;SDS011;9294;51.106;7.028;2024-01-10T11:00:06;7.40;;;6.70;;
18336;SDS011;9294;51.106;7.028;2024-01-10T11:02:35;9.35;;;6.35;;
18336;SDS011;9294;51.106;7.028;2024-01-10T11:05:02;9.70;;;6.40;;
18336;SDS011;9294;51.106;7.028;2024-01-10T11:07:30;12.73;;;7.68;;
18336;SDS011;9294;51.106;7.028;2024-01-10T11:09:58;9.45;;;7.43;;
18336;SDS011;9294;51.106;7.028;2024-01-10T11:12:29;15.00;;;7.15;;
18336;SDS011;9294;51.106;7.028;2024-01-10T11:15:02;11.05;;;6.50;;
18336;SDS011;9294;51.106;7.028;2024-01-10T11:20:21;9.95;;;6.60;;
18336;SDS011;9294;51.106;7.028;2024-01-10T11:22:57;7.25;;;6.43;;
18336;SDS011;9294;51.106;7.028;2024-01-10T11:25:29;8.57;;;6.28;;
18336;SDS011;9294;51.106;7.028;2024-01-10T11:27:57;7.60;;;6.50;;
18336;SDS011;9294;51.106;7.028;2024-01-10T11:30:33;7.32;;;6.30;;
18336;SDS011;9294;51.106;7.028;2024-01-10T11:33:01;7.00;;;6.32;;
18336;SDS011;9294;51.106;7.028;2024-01-10T11:35:29;7.85;;;6.60;;
18336;SDS011;9294;51.106;7.028;2024-01-10T11:37:59;8.48;;;6.32;;
18336;SDS011;9294;51.106;7.028;2024-01-10T11:43:09;7.78;;;6.65;;
18336;SDS011;9294;51.106;7.028;2024-01-10T11:45:43;7.80;;;5.85;;
18336;SDS011;9294;51.106;7.028;2024-01-10T11:48:17;10.50;;;6.40;;
18336;SDS011;9294;51.106;7.028;2024-01-10T11:50:45;7.00;;;6.28;;
18336;SDS011;9294;51.106;7.028;2024-01-10T11:53:12;7.07;;;6.35;;
18336;SDS011;9294;51.106;7.028;2024-01-10T11:55:46;8.52;;;6.45;;
18336;SDS011;9294;51.106;7.028;2024-01-10T11:58:14;9.30;;;6.72;;
18336;SDS011;9294;51.106;7.028;2024-01-10T12:00:41;8.75;;;6.35;;
18336;SDS011;9294;51.106;7.028;2024-01-10T12:03:09;7.00;;;6.05;;
18336;SDS011;9294;51.106;7.028;2024-01-10T12:05:36;7.68;;;6.97;;
18336;SDS011;9294;51.106;7.028;2024-01-10T12:08:06;7.18;;;6.47;;
18336;SDS011;9294;51.106;7.028;2024-01-10T12:10:33;8.57;;;6.95;;
18336;SDS011;9294;51.106;7.028;2024-01-10T12:13:01;7.32;;;6.57;;
18336;SDS011;9294;51.106;7.028;2024-01-10T12:15:28;8.95;;;7.07;;
18336;SDS011;9294;51.106;7.028;2024-01-10T12:17:55;11.48;;;6.28;;
18336;SDS011;9294;51.106;7.028;2024-01-10T12:20:22;11.63;;;6.32;;
18336;SDS011;9294;51.106;7.028;2024-01-10T12:22:49;9.77;;;6.10;;
18336;SDS011;9294;51.106;7.028;2024-01-10T12:25:18;8.35;;;7.35;;
18336;SDS011;9294;51.106;7.028;2024-01-10T12:27:45;8.70;;;6.28;;
18336;SDS011;9294;51.106;7.028;2024-01-10T12:30:12;6.85;;;6.25;;
18336;SDS011;9294;51.106;7.028;2024-01-10T12:32:39;6.90;;;6.20;;
18336;SDS011;9294;51.106;7.028;2024-01-10T12:35:07;7.70;;;6.22;;
18336;SDS011;9294;51.106;7.028;2024-01-10T12:37:34;11.27;;;6.97;;
18336;SDS011;9294;51.106;7.028;2024-01-10T12:40:01;9.98;;;6.90;;
18336;SDS011;9294;51.106;7.028;2024-01-10T12:42:31;9.48;;;6.50;;
18336;SDS011;9294;51.106;7.028;2024-01-10T12:44:58;14.65;;;7.15;;
18336;SDS011;9294;51.106;7.028;2024-01-10T12:47:25;7.88;;;6.35;;
18336;SDS011;9294;51.106;7.028;2024-01-10T12:49:52;8.15;;;6.15;;
18336;SDS011;9294;51.106;7.028;2024-01-10T12:52:19;10.75;;;6.68;;
18336;SDS011;9294;51.106;7.028;2024-01-10T12:54:47;7.15;;;6.22;;
18336;SDS011;9294;51.106;7.028;2024-01-10T12:57:14;8.00;;;6.18;;
18336;SDS011;9294;51.106;7.028;2024-01-10T12:59:42;6.75;;;5.88;;
18336;SDS011;9294;51.106;7.028;2024-01-10T13:02:10;9.20;;;7.22;;
18336;SDS011;9294;51.106;7.028;2024-01-10T13:04:37;9.10;;;6.70;;
18336;SDS011;9294;51.106;7.028;2024-01-10T13:07:04;7.40;;;6.25;;
18336;SDS011;9294;51.106;7.028;2024-01-10T13:09:31;9.20;;;6.45;;
18336;SDS011;9294;51.106;7.028;2024-01-10T13:11:58;9.00;;;6.28;;
18336;SDS011;9294;51.106;7.028;2024-01-10T13:14:25;9.98;;;6.28;;
18336;SDS011;9294;51.106;7.028;2024-01-10T13:16:54;9.98;;;6.72;;
18336;SDS011;9294;51.106;7.028;2024-01-10T13:19:21;11.32;;;6.90;;
18336;SDS011;9294;51.106;7.028;2024-01-10T13:21:48;8.07;;;7.28;;
18336;SDS011;9294;51.106;7.028;2024-01-10T13:24:15;8.20;;;7.00;;
18336;SDS011;9294;51.106;7.028;2024-01-10T13:26:42;7.70;;;6.35;;
18336;SDS011;9294;51.106;7.028;2024-01-10T13:29:09;7.85;;;6.78;;
18336;SDS011;9294;51.106;7.028;2024-01-10T13:31:39;7.32;;;6.63;;
18336;SDS011;9294;51.106;7.028;2024-01-10T13:34:07;7.90;;;7.20;;
18336;SDS011;9294;51.106;7.028;2024-01-10T13:36:36;8.40;;;7.13;;
18336;SDS011;9294;51.106;7.028;2024-01-10T13:39:03;9.75;;;6.93;;
18336;SDS011;9294;51.106;7.028;2024-01-10T13:41:30;7.40;;;6.40;;
18336;SDS011;9294;51.106;7.028;2024-01-10T13:43:57;7.65;;;6.85;;
18336;SDS011;9294;51.106;7.028;2024-01-10T13:46:25;7.30;;;6.50;;
18336;SDS011;9294;51.106;7.028;2024-01-10T13:48:52;9.05;;;6.70;;
18336;SDS011;9294;51.106;7.028;2024-01-10T13:51:20;8.65;;;6.78;;
18336;SDS011;9294;51.106;7.028;2024-01-10T13:53:47;8.50;;;6.90;;
18336;SDS011;9294;51.106;7.028;2024-01-10T13:56:14;7.18;;;6.47;;
18336;SDS011;9294;51.106;7.028;2024-01-10T13:58:41;7.97;;;6.72;;
18336;SDS011;9294;51.106;7.028;2024-01-10T14:01:08;9.20;;;6.70;;
18336;SDS011;9294;51.106;7.028;2024-01-10T14:03:36;9.30;;;6.88;;
18336;SDS011;9294;51.106;7.028;2024-01-10T14:06:03;9.63;;;6.65;;
18336;SDS011;9294;51.106;7.028;2024-01-10T14:08:31;7.40;;;6.70;;
18336;SDS011;9294;51.106;7.028;2024-01-10T14:10:59;11.13;;;7.07;;
18336;SDS011;9294;51.106;7.028;2024-01-10T14:13:26;7.68;;;6.55;;
18336;SDS011;9294;51.106;7.028;2024-01-10T14:15:53;7.57;;;6.85;;
18336;SDS011;9294;51.106;7.028;2024-01-10T14:18:20;9.23;;;7.20;;
18336;SDS011;9294;51.106;7.028;2024-01-10T14:20:47;7.63;;;6.57;;
18336;SDS011;9294;51.106;7.028;2024-01-10T14:23:14;8.00;;;7.20;;
18336;SDS011;9294;51.106;7.028;2024-01-10T14:25:44;10.68;;;7.68;;
18336;SDS011;9294;51.106;7.028;2024-01-10T14:28:11;10.52;;;7.22;;
18336;SDS011;9294;51.106;7.028;2024-01-10T14:30:39;8.93;;;7.93;;
18336;SDS011;9294;51.106;7.028;2024-01-10T14:33:06;8.25;;;6.93;;
18336;SDS011;9294;51.106;7.028;2024-01-10T14:35:33;9.20;;;7.63;;
18336;SDS011;9294;51.106;7.028;2024-01-10T14:38:00;9.40;;;7.20;;
18336;SDS011;9294;51.106;7.028;2024-01-10T14:40:28;9.63;;;7.38;;
18336;SDS011;9294;51.106;7.028;2024-01-10T14:42:56;9.90;;;7.88;;
18336;SDS011;9294;51.106;7.028;2024-01-10T14:45:24;11.80;;;6.88;;
18336;SDS011;9294;51.106;7.028;2024-01-10T14:47:51;7.95;;;7.15;;
18336;SDS011;9294;51.106;7.028;2024-01-10T14:50:18;10.25;;;7.60;;
18336;SDS011;9294;51.106;7.028;2024-01-10T14:52:45;8.95;;;7.30;;
18336;SDS011;9294;51.106;7.028;2024-01-10T14:55:12;7.85;;;6.57;;
18336;SDS011;9294;51.106;7.028;2024-01-10T14:57:39;8.93;;;7.63;;
18336;SDS011;9294;51.106;7.028;2024-01-10T15:00:08;8.65;;;7.15;;
18336;SDS011;9294;51.106;7.028;2024-01-10T15:02:35;8.55;;;7.65;;
18336;SDS011;9294;51.106;7.028;2024-01-10T15:05:03;8.15;;;7.25;;